createdAt,value
2022-11-14T00:00:28.723Z,4.34
2022-11-14T00:02:55.308Z,4.13
2022-11-14T00:05:22.285Z,4.06
2022-11-14T00:07:48.768Z,4.24
2022-11-14T00:10:16.873Z,4.28
2022-11-14T00:12:43.487Z,4.24
2022-11-14T00:15:11.217Z,4.07
2022-11-14T00:17:38.136Z,4.01
2022-11-14T00:20:07.405Z,4.07
2022-11-14T00:22:34.003Z,4.17
2022-11-14T00:25:00.693Z,4.17
2022-11-14T00:27:27.262Z,4.04
2022-11-14T00:29:53.803Z,3.93
2022-11-14T00:32:22.353Z,3.82
2022-11-14T00:34:49.486Z,3.67
2022-11-14T00:37:15.989Z,3.81
2022-11-14T00:39:42.593Z,3.45
2022-11-14T00:42:09.169Z,3.31
2022-11-14T00:44:35.705Z,3.24
2022-11-14T00:47:02.224Z,3.43
2022-11-14T00:49:28.802Z,3.33
2022-11-14T00:51:55.350Z,3.23
2022-11-14T00:54:21.921Z,3.48
2022-11-14T00:56:48.498Z,3.36
2022-11-14T00:59:15.018Z,3.32
2022-11-14T01:01:41.558Z,3.43
2022-11-14T01:04:08.211Z,3.28
2022-11-14T01:06:34.784Z,3.32
2022-11-14T01:09:01.501Z,3.32
2022-11-14T01:11:28.065Z,3.30
2022-11-14T01:13:54.615Z,3.27
2022-11-14T01:16:21.313Z,3.29
2022-11-14T01:18:47.873Z,3.19
2022-11-14T01:21:15.143Z,3.05
2022-11-14T01:23:42.019Z,3.19
2022-11-14T01:26:11.747Z,3.17
2022-11-14T01:28:39.076Z,3.23
2022-11-14T01:31:24.092Z,3.26
2022-11-14T01:33:52.779Z,3.45
2022-11-14T01:36:20.836Z,3.44
2022-11-14T01:38:52.041Z,3.34
2022-11-14T01:41:18.602Z,3.28
2022-11-14T01:43:45.336Z,3.37
2022-11-14T01:46:30.067Z,3.33
2022-11-14T01:49:22.191Z,3.19
2022-11-14T01:51:56.378Z,3.13
2022-11-14T01:54:41.279Z,3.11
2022-11-14T01:57:11.654Z,3.07
2022-11-14T01:59:44.508Z,2.96
2022-11-14T02:02:17.306Z,2.76
2022-11-14T02:04:49.369Z,2.60
2022-11-14T02:07:17.487Z,2.42
2022-11-14T02:09:48.279Z,2.42
2022-11-14T02:12:18.086Z,2.35
2022-11-14T02:14:48.134Z,2.28
2022-11-14T02:17:32.415Z,2.20
2022-11-14T02:20:11.492Z,2.11
2022-11-14T02:22:39.358Z,2.06
2022-11-14T02:25:07.583Z,2.04
2022-11-14T02:27:36.188Z,2.13
2022-11-14T02:30:08.736Z,2.15
2022-11-14T02:32:57.022Z,2.11
2022-11-14T02:35:21.876Z,2.07
2022-11-14T02:37:48.493Z,2.09
2022-11-14T02:40:15.021Z,2.14
2022-11-14T02:42:41.711Z,2.01
2022-11-14T02:45:10.537Z,2.04
2022-11-14T02:47:37.153Z,2.07
2022-11-14T02:50:04.079Z,1.96
2022-11-14T02:52:30.658Z,1.90
2022-11-14T02:54:57.259Z,1.96
2022-11-14T02:57:23.817Z,1.89
2022-11-14T02:59:50.393Z,1.92
2022-11-14T03:02:16.989Z,1.81
2022-11-14T03:04:43.572Z,1.76
2022-11-14T03:07:10.159Z,1.69
2022-11-14T03:09:36.694Z,1.82
2022-11-14T03:12:03.642Z,1.92
2022-11-14T03:14:31.658Z,1.83
2022-11-14T03:16:58.424Z,1.81
2022-11-14T03:19:25.092Z,1.89
2022-11-14T03:21:51.803Z,1.91
2022-11-14T03:24:18.441Z,1.84
2022-11-14T03:26:45.029Z,1.82
2022-11-14T03:29:11.622Z,1.89
2022-11-14T03:31:38.170Z,1.89
2022-11-14T03:34:04.714Z,1.89
2022-11-14T03:36:31.335Z,1.85
2022-11-14T03:38:57.873Z,1.83
2022-11-14T03:41:24.456Z,1.81
2022-11-14T03:43:51.015Z,1.86
2022-11-14T03:46:17.577Z,1.89
2022-11-14T03:48:44.126Z,1.80
2022-11-14T03:51:10.709Z,1.79
2022-11-14T03:53:37.337Z,1.77
2022-11-14T03:56:04.037Z,1.71
2022-11-14T03:58:30.934Z,1.75
2022-11-14T04:00:57.819Z,1.73
2022-11-14T04:03:25.110Z,1.81
2022-11-14T04:05:51.716Z,1.84
2022-11-14T04:08:18.394Z,1.86
2022-11-14T04:10:48.266Z,1.80
2022-11-14T04:13:15.456Z,1.82
2022-11-14T04:15:42.061Z,1.82
2022-11-14T04:18:08.638Z,1.82
2022-11-14T04:20:35.167Z,1.72
2022-11-14T04:23:01.681Z,1.80
2022-11-14T04:25:28.190Z,1.83
2022-11-14T04:27:54.733Z,1.79
2022-11-14T04:30:21.269Z,1.77
2022-11-14T04:32:49.179Z,1.74
2022-11-14T04:35:16.092Z,1.70
2022-11-14T04:37:42.714Z,1.85
2022-11-14T04:40:09.664Z,1.88
2022-11-14T04:42:36.202Z,1.78
2022-11-14T04:45:03.049Z,1.71
2022-11-14T04:47:29.719Z,1.65
2022-11-14T04:49:56.253Z,1.76
2022-11-14T04:52:22.862Z,1.66
2022-11-14T04:54:49.357Z,1.62
2022-11-14T04:57:17.762Z,1.82
2022-11-14T04:59:44.344Z,1.74
2022-11-14T05:02:10.949Z,1.73
2022-11-14T05:04:37.631Z,1.84
2022-11-14T05:07:04.284Z,1.75
2022-11-14T05:09:30.955Z,1.62
2022-11-14T05:11:57.556Z,1.64
2022-11-14T05:14:24.183Z,1.62
2022-11-14T05:16:50.747Z,1.57
2022-11-14T05:19:17.257Z,1.64
2022-11-14T05:21:43.765Z,1.65
2022-11-14T05:24:10.299Z,1.68
2022-11-14T05:26:37.437Z,1.73
2022-11-14T05:29:04.245Z,1.79
2022-11-14T05:31:30.794Z,1.78
2022-11-14T05:33:57.342Z,1.78
2022-11-14T05:36:23.935Z,1.74
2022-11-14T05:38:50.677Z,1.72
2022-11-14T05:41:20.198Z,1.71
2022-11-14T05:43:46.815Z,1.69
2022-11-14T05:46:15.616Z,1.68
2022-11-14T05:48:42.662Z,1.71
2022-11-14T05:51:12.297Z,1.71
2022-11-14T05:53:39.275Z,1.71
2022-11-14T05:56:10.116Z,1.77
2022-11-14T05:58:36.865Z,1.68
2022-11-14T06:01:10.748Z,1.68
2022-11-14T06:03:43.390Z,1.74
2022-11-14T06:06:14.038Z,1.79
2022-11-14T06:08:41.599Z,1.90
2022-11-14T06:11:16.085Z,1.65
2022-11-14T06:13:43.767Z,1.61
2022-11-14T06:16:18.779Z,1.59
2022-11-14T06:18:46.094Z,1.54
2022-11-14T06:21:15.813Z,1.43
2022-11-14T06:23:43.423Z,1.53
2022-11-14T06:26:30.061Z,1.61
2022-11-14T06:28:57.941Z,1.56
2022-11-14T06:31:25.768Z,1.44
2022-11-14T06:33:52.653Z,1.38
2022-11-14T06:36:19.581Z,1.47
2022-11-14T06:38:46.121Z,1.42
2022-11-14T06:41:19.219Z,1.53
2022-11-14T06:43:48.412Z,1.56
2022-11-14T06:46:18.392Z,1.58
2022-11-14T06:48:46.567Z,1.55
2022-11-14T06:51:14.905Z,1.40
2022-11-14T06:53:42.600Z,1.35
2022-11-14T06:56:17.767Z,1.46
2022-11-14T06:58:47.177Z,1.49
2022-11-14T07:01:19.428Z,1.49
2022-11-14T07:03:46.274Z,1.47
2022-11-14T07:06:19.418Z,1.40
2022-11-14T07:08:46.197Z,1.48
2022-11-14T07:11:26.414Z,1.43
2022-11-14T07:13:56.262Z,1.42
2022-11-14T07:16:31.664Z,1.47
2022-11-14T07:18:59.691Z,1.57
2022-11-14T07:21:28.535Z,1.59
2022-11-14T07:23:56.085Z,1.59
2022-11-14T07:26:23.464Z,1.62
2022-11-14T07:28:53.012Z,1.59
2022-11-14T07:31:22.141Z,1.67
2022-11-14T07:33:48.926Z,1.74
2022-11-14T07:36:17.639Z,1.81
2022-11-14T07:38:44.270Z,1.87
2022-11-14T07:41:13.568Z,1.93
2022-11-14T07:43:40.600Z,1.98
2022-11-14T07:46:17.992Z,1.90
2022-11-14T07:48:44.772Z,1.91
2022-11-14T07:51:18.219Z,2.01
2022-11-14T07:53:45.178Z,2.17
2022-11-14T07:56:13.014Z,2.09
2022-11-14T07:58:41.362Z,2.13
2022-11-14T08:01:11.297Z,2.25
2022-11-14T08:03:43.960Z,2.37
2022-11-14T08:06:14.674Z,2.31
2022-11-14T08:08:41.380Z,2.30
2022-11-14T08:11:08.158Z,2.42
2022-11-14T08:13:34.673Z,2.48
2022-11-14T08:16:11.920Z,2.54
2022-11-14T08:18:38.777Z,2.81
2022-11-14T08:21:05.827Z,3.05
2022-11-14T08:23:32.464Z,3.17
2022-11-14T08:26:00.329Z,3.22
2022-11-14T08:28:27.069Z,3.47
2022-11-14T08:31:02.196Z,3.61
2022-11-14T08:33:29.461Z,3.75
2022-11-14T08:35:56.100Z,3.98
2022-11-14T08:38:22.703Z,4.12
2022-11-14T08:40:49.217Z,4.08
2022-11-14T08:43:15.885Z,4.29
2022-11-14T08:45:42.439Z,4.33
2022-11-14T08:48:09.071Z,4.38
2022-11-14T08:50:35.622Z,4.59
2022-11-14T08:53:02.198Z,4.53
2022-11-14T08:55:28.721Z,4.63
2022-11-14T08:57:55.268Z,5.10
2022-11-14T09:00:22.109Z,5.13
2022-11-14T09:02:48.763Z,5.32
2022-11-14T09:05:15.489Z,5.35
2022-11-14T09:07:42.332Z,5.24
2022-11-14T09:10:09.689Z,5.38
2022-11-14T09:12:36.251Z,5.66
2022-11-14T09:15:02.900Z,5.71
2022-11-14T09:17:29.451Z,5.87
2022-11-14T09:19:55.975Z,5.95
2022-11-14T09:22:23.219Z,5.96
2022-11-14T09:24:49.961Z,5.96
2022-11-14T09:27:17.119Z,6.07
2022-11-14T09:29:44.115Z,6.13
2022-11-14T09:32:10.764Z,6.20
2022-11-14T09:34:37.372Z,6.33
2022-11-14T09:37:03.979Z,6.30
2022-11-14T09:39:30.523Z,6.31
2022-11-14T09:42:04.649Z,6.44
2022-11-14T09:44:55.680Z,6.45
2022-11-14T09:47:47.955Z,6.56
2022-11-14T09:50:24.450Z,6.54
2022-11-14T09:52:57.302Z,6.78
2022-11-14T09:55:37.283Z,6.79
2022-11-14T09:58:06.344Z,6.81
2022-11-14T10:00:51.480Z,6.82
2022-11-14T10:03:42.613Z,6.80
2022-11-14T10:06:18.911Z,6.81
2022-11-14T10:09:17.986Z,6.98
2022-11-14T10:11:52.023Z,6.96
2022-11-14T10:14:50.612Z,7.03
2022-11-14T10:17:55.112Z,7.03
2022-11-14T10:20:44.831Z,7.10
2022-11-14T10:23:25.144Z,7.12
2022-11-14T10:26:00.719Z,7.10
2022-11-14T10:28:49.370Z,7.15
2022-11-14T10:31:30.821Z,7.22
2022-11-14T10:34:04.261Z,7.41
2022-11-14T10:37:01.711Z,7.40
2022-11-14T10:39:51.162Z,7.45
2022-11-14T10:42:43.235Z,7.33
2022-11-14T10:45:15.823Z,7.46
2022-11-14T10:47:51.781Z,7.48
2022-11-14T10:50:41.252Z,7.53
2022-11-14T10:53:23.534Z,7.47
2022-11-14T10:56:03.842Z,7.40
2022-11-14T10:58:42.040Z,7.30
2022-11-14T11:01:32.551Z,7.22
2022-11-14T11:04:14.455Z,7.26
2022-11-14T11:06:41.208Z,7.36
2022-11-14T11:09:43.801Z,7.38
2022-11-14T11:12:18.344Z,7.35
2022-11-14T11:14:47.348Z,7.34
2022-11-14T11:17:15.912Z,7.40
2022-11-14T11:19:43.042Z,7.37
2022-11-14T11:22:38.834Z,7.43
2022-11-14T11:25:34.926Z,7.48
2022-11-14T11:28:18.429Z,7.37
2022-11-14T11:31:17.169Z,7.46
2022-11-14T11:33:44.064Z,7.47
2022-11-14T11:36:18.450Z,7.42
2022-11-14T11:38:47.159Z,7.51
2022-11-14T11:44:19.827Z,7.52
2022-11-14T11:47:02.262Z,7.54
2022-11-14T11:49:48.660Z,7.72
2022-11-14T11:52:37.235Z,7.74
2022-11-14T11:55:20.891Z,7.82
2022-11-14T11:58:01.543Z,7.84
2022-11-14T12:00:28.880Z,7.77
2022-11-14T12:02:55.886Z,7.77
2022-11-14T12:05:40.965Z,7.83
2022-11-14T12:08:48.323Z,7.83
2022-11-14T12:11:19.677Z,7.85
2022-11-14T12:14:25.580Z,7.93
2022-11-14T12:17:20.451Z,8.05
2022-11-14T12:19:59.030Z,8.05
2022-11-14T12:23:03.022Z,8.14
2022-11-14T12:25:32.463Z,8.21
2022-11-14T12:28:36.328Z,8.21
2022-11-14T12:31:11.466Z,8.24
2022-11-14T12:34:04.015Z,8.26
2022-11-14T12:36:34.247Z,8.28
2022-11-14T12:39:02.241Z,8.22
2022-11-14T12:41:33.301Z,8.13
2022-11-14T12:44:31.191Z,8.21
2022-11-14T12:47:07.161Z,8.22
2022-11-14T12:50:01.223Z,8.28
2022-11-14T12:52:45.598Z,8.25
2022-11-14T12:55:24.279Z,8.28
2022-11-14T12:58:08.711Z,8.42
2022-11-14T13:00:44.089Z,8.52
2022-11-14T13:03:32.881Z,8.61
2022-11-14T13:06:07.521Z,8.71
2022-11-14T13:09:04.621Z,8.81
2022-11-14T13:11:54.171Z,8.73
2022-11-14T13:14:40.012Z,8.83
2022-11-14T13:17:34.268Z,8.73
2022-11-14T13:20:40.576Z,8.66
2022-11-14T13:23:25.381Z,8.58
2022-11-14T13:26:10.155Z,8.59
2022-11-14T13:28:53.233Z,8.53
2022-11-14T13:31:22.747Z,8.52
2022-11-14T13:33:59.844Z,8.48
2022-11-14T13:36:42.110Z,8.46
2022-11-14T13:39:56.319Z,8.40
2022-11-14T13:42:35.587Z,8.42
2022-11-14T13:45:24.791Z,8.45
2022-11-14T13:48:26.421Z,8.42
2022-11-14T13:51:10.219Z,8.45
2022-11-14T13:53:46.481Z,8.38
2022-11-14T13:57:02.938Z,8.40
2022-11-14T13:59:35.166Z,8.37
2022-11-14T14:02:10.859Z,8.34
2022-11-14T14:04:55.506Z,8.31
2022-11-14T14:07:52.496Z,8.32
2022-11-14T14:10:55.961Z,8.26
2022-11-14T14:13:22.469Z,8.30
2022-11-14T14:16:07.220Z,8.31
2022-11-14T14:19:00.918Z,8.24
2022-11-14T14:21:38.109Z,8.25
2022-11-14T14:24:44.011Z,8.21
2022-11-14T14:27:19.298Z,8.22
2022-11-14T14:29:49.235Z,8.21
2022-11-14T14:32:17.839Z,8.21
2022-11-14T14:34:44.830Z,8.22
2022-11-14T14:37:27.308Z,8.15
2022-11-14T14:39:57.653Z,8.22
2022-11-14T14:42:29.504Z,8.21
2022-11-14T14:44:59.117Z,8.22
2022-11-14T14:47:38.106Z,8.20
2022-11-14T14:50:15.547Z,8.20
2022-11-14T14:52:42.285Z,8.22
2022-11-14T14:55:20.740Z,8.19
2022-11-14T14:57:47.386Z,8.17
2022-11-14T15:00:26.225Z,8.23
2022-11-14T15:02:55.844Z,8.18
2022-11-14T15:05:28.556Z,8.20
2022-11-14T15:08:00.867Z,8.14
2022-11-14T15:10:30.557Z,8.15
2022-11-14T15:12:59.237Z,8.10
2022-11-14T15:15:28.270Z,8.09
2022-11-14T15:17:58.513Z,8.10
2022-11-14T15:20:28.060Z,8.11
2022-11-14T15:23:20.345Z,8.08
2022-11-14T15:25:47.513Z,8.07
2022-11-14T15:28:21.414Z,8.07
2022-11-14T15:31:01.034Z,8.06
2022-11-14T15:33:33.399Z,8.05
2022-11-14T15:36:17.049Z,8.00
2022-11-14T15:39:04.573Z,8.03
2022-11-14T15:41:33.563Z,8.02
2022-11-14T15:44:03.055Z,8.03
2022-11-14T15:46:41.478Z,8.05
2022-11-14T15:49:18.972Z,8.04
2022-11-14T15:51:56.838Z,8.11
2022-11-14T15:54:34.461Z,8.06
2022-11-14T15:57:06.769Z,8.01
2022-11-14T15:59:34.697Z,8.02
2022-11-14T16:02:16.694Z,8.02
2022-11-14T16:04:47.897Z,8.19
2022-11-14T16:07:16.772Z,8.04
2022-11-14T16:09:43.795Z,7.94
2022-11-14T16:12:10.537Z,8.00
2022-11-14T16:14:37.558Z,8.03
2022-11-14T16:17:04.285Z,8.00
2022-11-14T16:19:31.124Z,8.00
2022-11-14T16:22:02.506Z,7.98
2022-11-14T16:24:33.965Z,7.94
2022-11-14T16:27:01.204Z,7.96
2022-11-14T16:29:27.777Z,8.00
2022-11-14T16:31:55.473Z,7.97
2022-11-14T16:34:24.777Z,7.95
2022-11-14T16:37:00.496Z,7.96
2022-11-14T16:39:28.076Z,8.03
2022-11-14T16:42:02.431Z,7.99
2022-11-14T16:44:30.145Z,8.01
2022-11-14T16:46:56.856Z,8.02
2022-11-14T16:49:23.710Z,8.00
2022-11-14T16:51:51.773Z,7.99
2022-11-14T16:54:20.093Z,7.98
2022-11-14T16:56:47.888Z,8.00
2022-11-14T16:59:14.506Z,7.96
2022-11-14T17:01:42.146Z,7.96
2022-11-14T17:04:08.788Z,7.94
2022-11-14T17:06:35.423Z,7.97
2022-11-14T17:09:02.132Z,7.99
2022-11-14T17:11:29.105Z,7.96
2022-11-14T17:13:56.678Z,7.96
2022-11-14T17:16:24.010Z,7.95
2022-11-14T17:18:52.329Z,7.95
2022-11-14T17:21:18.829Z,7.93
2022-11-14T17:23:45.376Z,7.97
2022-11-14T17:26:13.693Z,7.93
2022-11-14T17:28:41.410Z,7.92
2022-11-14T17:31:08.692Z,7.95
2022-11-14T17:33:36.624Z,7.90
2022-11-14T17:36:08.380Z,7.91
2022-11-14T17:38:36.857Z,7.91
2022-11-14T17:41:06.714Z,7.92
2022-11-14T17:43:39.161Z,7.92
2022-11-14T17:46:12.677Z,7.98
2022-11-14T17:48:42.801Z,7.93
2022-11-14T17:51:12.719Z,7.94
2022-11-14T17:53:40.368Z,7.91
2022-11-14T17:56:07.796Z,7.94
2022-11-14T17:58:34.924Z,7.94
2022-11-14T18:01:01.972Z,7.93
2022-11-14T18:03:29.756Z,7.89
2022-11-14T18:06:15.160Z,7.90
2022-11-14T18:08:42.428Z,7.88
2022-11-14T18:11:11.535Z,7.95
2022-11-14T18:13:39.516Z,7.92
2022-11-14T18:16:13.435Z,7.97
2022-11-14T18:18:40.811Z,7.90
2022-11-14T18:21:15.092Z,7.87
2022-11-14T18:23:42.300Z,7.89
2022-11-14T18:26:14.656Z,7.86
2022-11-14T18:28:41.506Z,7.82
2022-11-14T18:31:10.870Z,7.69
2022-11-14T18:33:38.930Z,7.60
2022-11-14T18:36:11.113Z,7.35
2022-11-14T18:38:37.649Z,7.14
2022-11-14T18:41:09.202Z,7.03
2022-11-14T18:43:36.391Z,7.01
2022-11-14T18:46:10.872Z,7.00
2022-11-14T18:48:39.580Z,6.85
2022-11-14T18:51:11.060Z,6.69
2022-11-14T18:53:37.788Z,6.61
2022-11-14T18:56:12.990Z,6.58
2022-11-14T18:58:41.311Z,6.50
2022-11-14T19:01:37.492Z,6.40
2022-11-14T19:04:07.867Z,6.33
2022-11-14T19:06:37.863Z,6.25
2022-11-14T19:09:15.909Z,6.20
2022-11-14T19:12:01.693Z,6.22
2022-11-14T19:14:28.407Z,6.14
2022-11-14T19:16:54.966Z,6.07
2022-11-14T19:19:21.555Z,5.91
2022-11-14T19:21:50.242Z,5.92
2022-11-14T19:24:17.113Z,5.89
2022-11-14T19:26:44.402Z,5.84
2022-11-14T19:29:13.313Z,5.80
2022-11-14T19:31:41.248Z,5.72
2022-11-14T19:34:08.619Z,5.76
2022-11-14T19:36:58.788Z,5.71
2022-11-14T19:39:22.236Z,5.68
2022-11-14T19:41:48.770Z,5.63
2022-11-14T19:44:15.286Z,5.51
2022-11-14T19:46:46.076Z,5.49
2022-11-14T19:49:13.989Z,5.37
2022-11-14T19:51:40.613Z,5.38
2022-11-14T19:54:08.971Z,5.40
2022-11-14T19:56:35.543Z,5.39
2022-11-14T19:59:02.728Z,5.35
2022-11-14T20:01:29.361Z,5.33
2022-11-14T20:03:59.001Z,5.34
2022-11-14T20:06:32.334Z,5.29
2022-11-14T20:09:02.266Z,5.22
2022-11-14T20:11:30.521Z,5.24
2022-11-14T20:13:59.109Z,5.17
2022-11-14T20:16:29.487Z,5.44
2022-11-14T20:18:59.279Z,5.77
2022-11-14T20:21:29.173Z,6.00
2022-11-14T20:24:00.155Z,6.08
2022-11-14T20:26:28.022Z,6.22
2022-11-14T20:28:54.734Z,6.25
2022-11-14T20:31:25.219Z,6.33
2022-11-14T20:33:53.828Z,6.38
2022-11-14T20:36:25.026Z,6.38
2022-11-14T20:38:52.943Z,6.50
2022-11-14T20:41:20.686Z,6.50
2022-11-14T20:43:47.719Z,6.49
2022-11-14T20:46:16.635Z,6.52
2022-11-14T20:48:43.475Z,6.56
2022-11-14T20:51:16.173Z,6.58
2022-11-14T20:53:43.603Z,6.61
2022-11-14T20:56:12.665Z,6.59
2022-11-14T20:58:47.518Z,6.62
2022-11-14T21:01:15.054Z,6.66
2022-11-14T21:03:41.899Z,6.72
2022-11-14T21:06:11.553Z,6.72
2022-11-14T21:08:38.680Z,6.74
2022-11-14T21:11:13.893Z,6.81
2022-11-14T21:13:55.998Z,6.84
2022-11-14T21:16:29.490Z,6.87
2022-11-14T21:18:56.835Z,6.85
2022-11-14T21:21:24.646Z,6.90
2022-11-14T21:23:51.580Z,6.88
2022-11-14T21:26:19.892Z,6.89
2022-11-14T21:28:49.076Z,6.93
2022-11-14T21:31:43.509Z,6.93
2022-11-14T21:34:14.311Z,6.94
2022-11-14T21:36:46.100Z,6.95
2022-11-14T21:39:15.716Z,6.98
2022-11-14T21:41:43.882Z,6.99
2022-11-14T21:44:16.541Z,6.95
2022-11-14T21:46:46.972Z,6.97
2022-11-14T21:49:13.517Z,7.03
2022-11-14T21:51:40.469Z,7.00
2022-11-14T21:54:07.270Z,7.01
2022-11-14T21:56:35.621Z,7.06
2022-11-14T21:59:15.162Z,7.07
2022-11-14T22:02:03.932Z,7.16
2022-11-14T22:04:31.790Z,7.20
2022-11-14T22:06:59.893Z,7.19
2022-11-14T22:09:28.350Z,7.20
2022-11-14T22:11:56.331Z,7.24
2022-11-14T22:14:23.399Z,7.27
2022-11-14T22:16:50.189Z,7.31
2022-11-14T22:19:16.832Z,7.31
2022-11-14T22:21:43.363Z,7.32
2022-11-14T22:24:10.000Z,7.35
2022-11-14T22:26:39.780Z,7.33
2022-11-14T22:29:07.394Z,7.39
2022-11-14T22:31:34.339Z,7.40
2022-11-14T22:34:00.857Z,7.43
2022-11-14T22:36:27.924Z,7.46
2022-11-14T22:38:56.303Z,7.49
2022-11-14T22:41:32.331Z,7.48
2022-11-14T22:43:59.565Z,7.50
2022-11-14T22:46:27.382Z,7.49
2022-11-14T22:48:55.142Z,7.43
2022-11-14T22:51:24.560Z,7.46
2022-11-14T22:53:53.418Z,7.51
2022-11-14T22:56:23.612Z,7.55
2022-11-14T22:58:50.766Z,7.55
2022-11-14T23:01:27.158Z,7.63
2022-11-14T23:04:03.132Z,7.68
2022-11-14T23:06:32.245Z,7.77
2022-11-14T23:09:00.547Z,7.71
2022-11-14T23:11:29.503Z,7.71
2022-11-14T23:13:58.249Z,7.75
2022-11-14T23:16:29.001Z,7.75
2022-11-14T23:18:57.909Z,7.71
2022-11-14T23:21:27.928Z,7.75
2022-11-14T23:23:56.871Z,7.74
2022-11-14T23:26:25.545Z,7.81
2022-11-14T23:28:52.535Z,7.85
2022-11-14T23:31:19.092Z,7.84
2022-11-14T23:33:47.062Z,7.91
2022-11-14T23:36:14.054Z,7.91
2022-11-14T23:38:40.948Z,7.91
2022-11-14T23:41:14.048Z,7.93
2022-11-14T23:43:40.604Z,7.99
2022-11-14T23:46:07.263Z,8.02
2022-11-14T23:48:33.799Z,8.07
2022-11-14T23:51:00.308Z,8.08
2022-11-14T23:53:26.871Z,8.00
2022-11-14T23:55:55.686Z,8.04
2022-11-14T23:58:23.933Z,8.00
